VIR301 VIDP-EGLL
Flight info
| Callsign | VIR301 |
|---|---|
| Flight time | N/A |
| Altitude | 36000 |
| Route | SURAM6G SURAM G333 MERUN L750 RANAH B449 MAMED B450 BIBIM A909 TUNEK/N0488F380 A909 RODAR M11 ERLEV T923 SUBUT T916 MATAL M11 REBLO UM11 CRM UL746 ODERO DCT OPT DCT IRLOX DCT EMPOS DCT NEPOT DCT BEGLA/N0486F400 DCT DEXIT DCT INBED DCT BOMBI DCT BUB L608 LOGAN |
| Aircraft | B789/H-SDE1E2E3FGHIJ2J3J4J5M1RWXY/LB1D1 |
Departure
| Time | 2026-04-28 10:48 |
|---|---|
| Airport | Indira Gandhi International Airport (VIDP) |
Arrival
| Time | N/A |
|---|---|
| Airport | London Heathrow Airport (EGLL) |
| Time | Latitude | Longitude | Altitude | Speed | Heading |
|---|---|---|---|---|---|
| 2026-04-28 09:58 | 28.55415 | 77.08071 | 751 ft | 0 kts | 327° |
| 2026-04-28 10:25 | 28.55409 | 77.08075 | 756 ft | 4 kts | 329° |
| 2026-04-28 10:25 | 28.55390 | 77.08088 | 756 ft | 4 kts | 307° |
| 2026-04-28 10:25 | 28.55382 | 77.08106 | 756 ft | 4 kts | 276° |
| 2026-04-28 10:25 | 28.55386 | 77.08131 | 752 ft | 4 kts | 242° |
| 2026-04-28 10:26 | 28.55397 | 77.08154 | 756 ft | 1 kts | 238° |
| 2026-04-28 10:26 | 28.55400 | 77.08158 | 753 ft | 0 kts | 238° |
| 2026-04-28 10:29 | 28.55389 | 77.08138 | 753 ft | 3 kts | 238° |
| 2026-04-28 10:29 | 28.55374 | 77.08112 | 756 ft | 5 kts | 238° |
| 2026-04-28 10:29 | 28.55354 | 77.08076 | 756 ft | 6 kts | 238° |
| 2026-04-28 10:29 | 28.55339 | 77.08047 | 755 ft | 0 kts | 238° |
| 2026-04-28 10:36 | 28.55338 | 77.08046 | 756 ft | 1 kts | 238° |
| 2026-04-28 10:36 | 28.55333 | 77.08037 | 753 ft | 2 kts | 238° |
| 2026-04-28 10:36 | 28.55321 | 77.08016 | 751 ft | 4 kts | 238° |
| 2026-04-28 10:36 | 28.55305 | 77.07986 | 756 ft | 5 kts | 238° |
| 2026-04-28 10:37 | 28.55296 | 77.07969 | 756 ft | 0 kts | 238° |
| 2026-04-28 10:37 | 28.55295 | 77.07967 | 756 ft | 1 kts | 238° |
| 2026-04-28 10:38 | 28.55288 | 77.07954 | 756 ft | 3 kts | 238° |
| 2026-04-28 10:38 | 28.55276 | 77.07928 | 755 ft | 5 kts | 245° |
| 2026-04-28 10:38 | 28.55261 | 77.07888 | 751 ft | 6 kts | 248° |
| 2026-04-28 10:38 | 28.55256 | 77.07834 | 752 ft | 7 kts | 276° |
| 2026-04-28 10:39 | 28.55268 | 77.07770 | 756 ft | 9 kts | 283° |
| 2026-04-28 10:39 | 28.55278 | 77.07695 | 755 ft | 10 kts | 259° |
| 2026-04-28 10:39 | 28.55235 | 77.07649 | 756 ft | 8 kts | 198° |
| 2026-04-28 10:39 | 28.55183 | 77.07618 | 754 ft | 8 kts | 230° |
| 2026-04-28 10:40 | 28.55178 | 77.07563 | 756 ft | 7 kts | 280° |
| 2026-04-28 10:40 | 28.55189 | 77.07495 | 752 ft | 10 kts | 280° |
| 2026-04-28 10:40 | 28.55203 | 77.07408 | 756 ft | 13 kts | 280° |
| 2026-04-28 10:40 | 28.55225 | 77.07306 | 754 ft | 14 kts | 291° |
| 2026-04-28 10:41 | 28.55261 | 77.07196 | 752 ft | 14 kts | 288° |
| 2026-04-28 10:41 | 28.55264 | 77.07185 | 756 ft | 0 kts | 288° |
| 2026-04-28 10:41 | 28.55265 | 77.07179 | 756 ft | 2 kts | 288° |
| 2026-04-28 10:42 | 28.55269 | 77.07166 | 755 ft | 1 kts | 288° |
| 2026-04-28 10:42 | 28.55274 | 77.07149 | 751 ft | 4 kts | 287° |
| 2026-04-28 10:42 | 28.55276 | 77.07139 | 753 ft | 0 kts | 287° |
| 2026-04-28 10:43 | 28.55280 | 77.07127 | 756 ft | 3 kts | 287° |
| 2026-04-28 10:43 | 28.55288 | 77.07094 | 756 ft | 6 kts | 284° |
| 2026-04-28 10:43 | 28.55283 | 77.07041 | 752 ft | 8 kts | 249° |
| 2026-04-28 10:43 | 28.55240 | 77.06994 | 751 ft | 10 kts | 207° |
| 2026-04-28 10:44 | 28.55164 | 77.06968 | 752 ft | 13 kts | 194° |
| 2026-04-28 10:44 | 28.55114 | 77.06953 | 751 ft | 0 kts | 194° |
| 2026-04-28 10:45 | 28.55113 | 77.06953 | 750 ft | 1 kts | 194° |
| 2026-04-28 10:45 | 28.55092 | 77.06947 | 754 ft | 6 kts | 194° |
| 2026-04-28 10:46 | 28.55084 | 77.06944 | 750 ft | 3 kts | 194° |
| 2026-04-28 10:46 | 28.55047 | 77.06933 | 749 ft | 8 kts | 194° |
| 2026-04-28 10:46 | 28.54992 | 77.06939 | 751 ft | 6 kts | 141° |
| 2026-04-28 10:46 | 28.54980 | 77.06969 | 755 ft | 5 kts | 111° |
| 2026-04-28 10:47 | 28.54972 | 77.07004 | 755 ft | 0 kts | 103° |
| 2026-04-28 10:47 | 28.54972 | 77.07008 | 751 ft | 3 kts | 103° |
| 2026-04-28 10:47 | 28.54923 | 77.07235 | 756 ft | 63 kts | 104° |
| 2026-04-28 10:47 | 28.54760 | 77.07987 | 754 ft | 130 kts | 104° |
| 2026-04-28 10:48 | 28.54496 | 77.09200 | 756 ft | 185 kts | 104° |
| 2026-04-28 10:48 | 28.54153 | 77.10743 | 1140 ft | 201 kts | 101° |
| 2026-04-28 10:48 | 28.53802 | 77.11984 | 2848 ft | 133 kts | 114° |
| 2026-04-28 10:48 | 28.53314 | 77.12928 | 2887 ft | 161 kts | 128° |
| 2026-04-28 10:49 | 28.52765 | 77.14165 | 2350 ft | 450 kts | 107° |
| 2026-04-28 10:49 | 28.51770 | 77.17270 | 4187 ft | 377 kts | 118° |
| 2026-04-28 10:49 | 28.50311 | 77.19283 | 6209 ft | 292 kts | 144° |
| 2026-04-28 10:49 | 28.48645 | 77.20112 | 7112 ft | 243 kts | 177° |
| 2026-04-28 10:50 | 28.47099 | 77.19770 | 7158 ft | 224 kts | 212° |
| 2026-04-28 10:50 | 28.45973 | 77.18529 | 6683 ft | 228 kts | 232° |
| 2026-04-28 10:50 | 28.45064 | 77.17144 | 6715 ft | 209 kts | 234° |
| 2026-04-28 10:50 | 28.44230 | 77.15831 | 6494 ft | 204 kts | 234° |
| 2026-04-28 10:51 | 28.43104 | 77.14764 | 5479 ft | 233 kts | 203° |
| 2026-04-28 10:51 | 28.41494 | 77.14188 | 5084 ft | 234 kts | 201° |
| 2026-04-28 10:51 | 28.40066 | 77.13592 | 5304 ft | 207 kts | 205° |
| 2026-04-28 10:51 | 28.38769 | 77.12939 | 5010 ft | 206 kts | 207° |
| 2026-04-28 10:52 | 28.37413 | 77.12238 | 4404 ft | 221 kts | 206° |
| 2026-04-28 10:52 | 28.36019 | 77.11541 | 4207 ft | 213 kts | 205° |
| 2026-04-28 10:52 | 28.34696 | 77.10885 | 4040 ft | 205 kts | 206° |
| 2026-04-28 10:52 | 28.33372 | 77.10221 | 3570 ft | 212 kts | 208° |
| 2026-04-28 10:53 | 28.32242 | 77.09159 | 2783 ft | 224 kts | 244° |
| 2026-04-28 10:53 | 28.31882 | 77.07384 | 2216 ft | 232 kts | 277° |
| 2026-04-28 10:53 | 28.32234 | 77.05731 | 2474 ft | 201 kts | 283° |
| 2026-04-28 10:53 | 28.32564 | 77.04233 | 2272 ft | 196 kts | 283° |
| 2026-04-28 10:54 | 28.32918 | 77.02677 | 1676 ft | 211 kts | 283° |
| 2026-04-28 10:54 | 28.33286 | 77.01063 | 1432 ft | 206 kts | 284° |
| 2026-04-28 10:54 | 28.33637 | 76.99535 | 1311 ft | 197 kts | 283° |
| 2026-04-28 10:54 | 28.34070 | 76.97617 | 2168 ft | 426 kts | 284° |
| 2026-04-28 10:55 | 28.34766 | 76.94568 | 3009 ft | 377 kts | 284° |
| 2026-04-28 10:55 | 28.35401 | 76.91785 | 2976 ft | 352 kts | 284° |
| 2026-04-28 10:55 | 28.35981 | 76.89220 | 3094 ft | 325 kts | 284° |
| 2026-04-28 10:55 | 28.36518 | 76.86852 | 3332 ft | 295 kts | 283° |
| 2026-04-28 10:56 | 28.37007 | 76.84701 | 3544 ft | 267 kts | 283° |
| 2026-04-28 10:56 | 28.37515 | 76.82747 | 3514 ft | 250 kts | 294° |
| 2026-04-28 10:56 | 28.38252 | 76.81040 | 3505 ft | 232 kts | 292° |
| 2026-04-28 10:56 | 28.38857 | 76.79409 | 3503 ft | 216 kts | 291° |
| 2026-04-28 10:57 | 28.39438 | 76.77899 | 3472 ft | 202 kts | 292° |
| 2026-04-28 10:57 | 28.40009 | 76.76456 | 3154 ft | 202 kts | 292° |
| 2026-04-28 10:57 | 28.40597 | 76.74963 | 2672 ft | 211 kts | 292° |
| 2026-04-28 10:57 | 28.41244 | 76.73383 | 2816 ft | 226 kts | 294° |
| 2026-04-28 10:58 | 28.41885 | 76.71946 | 3280 ft | 197 kts | 295° |
| 2026-04-28 10:58 | 28.42665 | 76.70339 | 2997 ft | 257 kts | 299° |
| 2026-04-28 10:58 | 28.43495 | 76.68787 | 4849 ft | 207 kts | 292° |
| 2026-04-28 10:58 | 28.43902 | 76.67190 | 5558 ft | 225 kts | 281° |
| 2026-04-28 10:59 | 28.44354 | 76.65342 | 5475 ft | 253 kts | 289° |
| 2026-04-28 10:59 | 28.45052 | 76.63483 | 5393 ft | 258 kts | 294° |
| 2026-04-28 10:59 | 28.45828 | 76.61664 | 5785 ft | 251 kts | 294° |
| 2026-04-28 10:59 | 28.46568 | 76.59821 | 6451 ft | 262 kts | 292° |
| 2026-04-28 11:00 | 28.47318 | 76.57869 | 6803 ft | 277 kts | 292° |
| 2026-04-28 11:00 | 28.48095 | 76.55875 | 6697 ft | 271 kts | 292° |
| 2026-04-28 11:00 | 28.48857 | 76.53944 | 6633 ft | 265 kts | 292° |
| 2026-04-28 11:00 | 28.49605 | 76.52037 | 6632 ft | 263 kts | 292° |
| 2026-04-28 11:01 | 28.50351 | 76.50130 | 6631 ft | 264 kts | 292° |
| 2026-04-28 11:01 | 28.51090 | 76.48240 | 6965 ft | 256 kts | 292° |
| 2026-04-28 11:01 | 28.51823 | 76.46368 | 7658 ft | 264 kts | 292° |
| 2026-04-28 11:01 | 28.52579 | 76.44445 | 8350 ft | 275 kts | 293° |
| 2026-04-28 11:02 | 28.53391 | 76.42440 | 9052 ft | 281 kts | 293° |
| 2026-04-28 11:02 | 28.54214 | 76.40406 | 9748 ft | 285 kts | 293° |